Goofy Ridge, Illinois
Current Conditions -  °F | °C
As of 8:01 PM on Wednesday 26 Nov 2014 (Local Time) from KPIA Reporting Station
Light Snow Light Snow  
Wind Chill: 20°   Ceiling: 4100
Heat Index: 29°   Visibility: 4mi
Dew Point: 23°   Wind: 9mph
Humidity: 78%   Direction: 30°NNE
Pressure: 30.16"   Gusts: NA
Location:  40.3722°N, 89.9358°W
Report Text: KPIA 270201Z 03008KT 4SM -SN FEW014 SCT031 OVC041 M02/M05 A3016 RMK AO2 P0000 T10171050
Loading
Personal Weather Stations






























Interactive Weather Map New forecast layout! Learn more

10-Day Weather Forecast

Advertisements
Track Severe Weather on mobile